sensor_id;sensor_type;location;lat;lon;timestamp;pressure;altitude;pressure_sealevel;temperature;humidity
46768;BME280;69007;48.978;18.066;2023-05-29T00:01:21;97609.53;;;16.09;76.55
46768;BME280;69007;48.978;18.066;2023-05-29T00:03:49;97606.25;;;16.07;76.07
46768;BME280;69007;48.978;18.066;2023-05-29T00:06:14;97600.56;;;16.03;76.32
46768;BME280;69007;48.978;18.066;2023-05-29T00:08:40;97606.56;;;16.05;76.81
46768;BME280;69007;48.978;18.066;2023-05-29T00:11:05;97600.94;;;15.96;75.46
46768;BME280;69007;48.978;18.066;2023-05-29T00:13:31;97597.31;;;16.01;75.74
46768;BME280;69007;48.978;18.066;2023-05-29T00:15:56;97603.81;;;16.05;76.01
46768;BME280;69007;48.978;18.066;2023-05-29T00:18:22;97604.63;;;16.06;76.32
46768;BME280;69007;48.978;18.066;2023-05-29T00:20:47;97599.66;;;16.08;76.76
46768;BME280;69007;48.978;18.066;2023-05-29T00:23:13;97593.75;;;16.00;76.59
46768;BME280;69007;48.978;18.066;2023-05-29T00:25:38;97603.81;;;16.05;76.71
46768;BME280;69007;48.978;18.066;2023-05-29T00:28:06;97601.38;;;16.03;76.32
46768;BME280;69007;48.978;18.066;2023-05-29T00:30:31;97583.16;;;15.94;76.17
46768;BME280;69007;48.978;18.066;2023-05-29T00:32:57;97593.22;;;15.98;76.99
46768;BME280;69007;48.978;18.066;2023-05-29T00:35:22;97598.81;;;15.93;76.73
46768;BME280;69007;48.978;18.066;2023-05-29T00:37:47;97594.44;;;15.92;77.49
46768;BME280;69007;48.978;18.066;2023-05-29T00:40:12;97590.75;;;15.83;78.07
46768;BME280;69007;48.978;18.066;2023-05-29T00:42:38;97589.94;;;15.82;77.49
46768;BME280;69007;48.978;18.066;2023-05-29T00:45:04;97598.69;;;15.84;78.22
46768;BME280;69007;48.978;18.066;2023-05-29T00:47:29;97589.34;;;15.86;77.41
46768;BME280;69007;48.978;18.066;2023-05-29T00:49:58;97578.78;;;15.79;77.47
46768;BME280;69007;48.978;18.066;2023-05-29T00:52:24;97596.16;;;15.88;77.16
46768;BME280;69007;48.978;18.066;2023-05-29T00:54:51;97583.13;;;15.80;77.15
46768;BME280;69007;48.978;18.066;2023-05-29T00:57:17;97605.28;;;15.83;77.19
46768;BME280;69007;48.978;18.066;2023-05-29T00:59:43;97589.75;;;15.79;77.32
46768;BME280;69007;48.978;18.066;2023-05-29T01:02:10;97565.25;;;15.63;77.40
46768;BME280;69007;48.978;18.066;2023-05-29T01:04:36;97589.19;;;15.77;78.09
46768;BME280;69007;48.978;18.066;2023-05-29T01:07:02;97580.31;;;15.66;78.53
46768;BME280;69007;48.978;18.066;2023-05-29T01:09:28;97581.22;;;15.61;78.70
46768;BME280;69007;48.978;18.066;2023-05-29T01:11:59;97595.66;;;15.67;78.29
46768;BME280;69007;48.978;18.066;2023-05-29T01:14:47;97601.44;;;15.65;78.43
46768;BME280;69007;48.978;18.066;2023-05-29T01:17:19;97593.50;;;15.64;78.38
46768;BME280;69007;48.978;18.066;2023-05-29T01:22:54;97588.25;;;15.68;79.12
46768;BME280;69007;48.978;18.066;2023-05-29T01:28:11;97590.44;;;15.65;79.53
46768;BME280;69007;48.978;18.066;2023-05-29T01:30:38;97582.84;;;15.62;79.03
46768;BME280;69007;48.978;18.066;2023-05-29T01:33:05;97588.25;;;15.68;78.42
46768;BME280;69007;48.978;18.066;2023-05-29T01:35:31;97594.69;;;15.77;77.91
46768;BME280;69007;48.978;18.066;2023-05-29T01:37:56;97595.53;;;15.77;78.42
46768;BME280;69007;48.978;18.066;2023-05-29T01:40:21;97569.66;;;15.64;78.00
46768;BME280;69007;48.978;18.066;2023-05-29T01:42:47;97589.25;;;15.72;78.50
46768;BME280;69007;48.978;18.066;2023-05-29T01:45:13;97588.47;;;15.71;78.50
46768;BME280;69007;48.978;18.066;2023-05-29T01:47:39;97594.25;;;15.70;78.39
46768;BME280;69007;48.978;18.066;2023-05-29T01:50:05;97586.59;;;15.66;78.11
46768;BME280;69007;48.978;18.066;2023-05-29T01:52:32;97585.59;;;15.62;79.11
46768;BME280;69007;48.978;18.066;2023-05-29T01:54:57;97580.63;;;15.64;78.85
46768;BME280;69007;48.978;18.066;2023-05-29T01:57:23;97563.28;;;15.50;79.20
46768;BME280;69007;48.978;18.066;2023-05-29T01:59:50;97567.81;;;15.41;79.61
46768;BME280;69007;48.978;18.066;2023-05-29T02:02:15;97568.94;;;15.40;80.12
46768;BME280;69007;48.978;18.066;2023-05-29T02:04:41;97570.13;;;15.34;80.73
46768;BME280;69007;48.978;18.066;2023-05-29T02:07:06;97569.41;;;15.28;80.78
46768;BME280;69007;48.978;18.066;2023-05-29T02:09:33;97570.22;;;15.28;80.43
46768;BME280;69007;48.978;18.066;2023-05-29T02:11:59;97567.56;;;15.23;79.85
46768;BME280;69007;48.978;18.066;2023-05-29T02:14:25;97538.44;;;15.08;80.00
46768;BME280;69007;48.978;18.066;2023-05-29T02:16:51;97562.19;;;15.32;80.11
46768;BME280;69007;48.978;18.066;2023-05-29T02:19:18;97555.22;;;15.40;80.12
46768;BME280;69007;48.978;18.066;2023-05-29T02:21:43;97556.13;;;15.35;80.46
46768;BME280;69007;48.978;18.066;2023-05-29T02:24:09;97563.34;;;15.31;81.28
46768;BME280;69007;48.978;18.066;2023-05-29T02:26:35;97560.63;;;15.26;82.54
46768;BME280;69007;48.978;18.066;2023-05-29T02:29:03;97545.69;;;15.18;83.08
46768;BME280;69007;48.978;18.066;2023-05-29T02:31:31;97540.00;;;15.15;82.81
46768;BME280;69007;48.978;18.066;2023-05-29T02:33:57;97554.94;;;15.22;82.67
46768;BME280;69007;48.978;18.066;2023-05-29T02:36:22;97552.06;;;15.14;84.86
46768;BME280;69007;48.978;18.066;2023-05-29T02:38:48;97544.50;;;14.86;86.49
46768;BME280;69007;48.978;18.066;2023-05-29T02:41:13;97543.97;;;14.65;88.18
46768;BME280;69007;48.978;18.066;2023-05-29T02:43:39;97542.69;;;14.57;89.55
46768;BME280;69007;48.978;18.066;2023-05-29T02:46:04;97532.97;;;14.46;90.29
46768;BME280;69007;48.978;18.066;2023-05-29T02:48:29;97528.34;;;14.42;91.64
46768;BME280;69007;48.978;18.066;2023-05-29T02:50:55;97550.50;;;14.45;93.05
46768;BME280;69007;48.978;18.066;2023-05-29T02:53:20;97539.03;;;14.19;95.28
46768;BME280;69007;48.978;18.066;2023-05-29T02:55:45;97549.09;;;14.24;95.55
46768;BME280;69007;48.978;18.066;2023-05-29T02:58:12;97544.03;;;14.12;96.65
46768;BME280;69007;48.978;18.066;2023-05-29T03:00:37;97553.31;;;13.87;97.69
46768;BME280;69007;48.978;18.066;2023-05-29T03:03:03;97553.38;;;13.81;98.62
46768;BME280;69007;48.978;18.066;2023-05-29T03:05:29;97550.97;;;13.75;99.09
46768;BME280;69007;48.978;18.066;2023-05-29T03:07:55;97544.72;;;13.69;100.00
46768;BME280;69007;48.978;18.066;2023-05-29T03:10:20;97564.41;;;13.71;100.00
46768;BME280;69007;48.978;18.066;2023-05-29T03:12:46;97541.28;;;13.58;100.00
46768;BME280;69007;48.978;18.066;2023-05-29T03:15:12;97544.78;;;13.64;100.00
46768;BME280;69007;48.978;18.066;2023-05-29T03:17:37;97560.81;;;13.76;100.00
46768;BME280;69007;48.978;18.066;2023-05-29T03:20:04;97554.19;;;13.82;100.00
46768;BME280;69007;48.978;18.066;2023-05-29T03:22:34;97566.16;;;13.91;100.00
46768;BME280;69007;48.978;18.066;2023-05-29T03:25:02;97568.53;;;13.98;100.00
46768;BME280;69007;48.978;18.066;2023-05-29T03:27:27;97560.78;;;14.05;100.00
46768;BME280;69007;48.978;18.066;2023-05-29T03:29:54;97550.97;;;14.04;100.00
46768;BME280;69007;48.978;18.066;2023-05-29T03:32:19;97561.91;;;14.04;100.00
46768;BME280;69007;48.978;18.066;2023-05-29T03:34:45;97576.31;;;13.86;100.00
46768;BME280;69007;48.978;18.066;2023-05-29T03:37:10;97565.84;;;13.93;100.00
46768;BME280;69007;48.978;18.066;2023-05-29T03:39:36;97553.16;;;14.02;100.00
46768;BME280;69007;48.978;18.066;2023-05-29T03:42:01;97552.72;;;14.19;100.00
46768;BME280;69007;48.978;18.066;2023-05-29T03:44:28;97573.97;;;14.51;100.00
46768;BME280;69007;48.978;18.066;2023-05-29T03:46:53;97559.66;;;14.60;100.00
46768;BME280;69007;48.978;18.066;2023-05-29T03:49:18;97572.19;;;14.85;99.18
46768;BME280;69007;48.978;18.066;2023-05-29T03:51:44;97568.38;;;15.05;98.29
46768;BME280;69007;48.978;18.066;2023-05-29T03:54:09;97575.00;;;15.18;96.29
46768;BME280;69007;48.978;18.066;2023-05-29T03:56:35;97557.22;;;15.34;96.00
46768;BME280;69007;48.978;18.066;2023-05-29T03:59:01;97571.50;;;15.69;93.97
46768;BME280;69007;48.978;18.066;2023-05-29T04:01:26;97573.91;;;15.90;91.88
46768;BME280;69007;48.978;18.066;2023-05-29T04:03:52;97565.06;;;16.07;90.83
46768;BME280;69007;48.978;18.066;2023-05-29T04:06:18;97558.78;;;16.20;89.83
46768;BME280;69007;48.978;18.066;2023-05-29T04:08:43;97579.56;;;16.54;88.53
46768;BME280;69007;48.978;18.066;2023-05-29T04:11:09;97588.09;;;16.80;87.06
46768;BME280;69007;48.978;18.066;2023-05-29T04:13:34;97578.53;;;16.91;86.60
46768;BME280;69007;48.978;18.066;2023-05-29T04:16:00;97573.72;;;17.11;86.60
46768;BME280;69007;48.978;18.066;2023-05-29T04:18:25;97554.91;;;17.27;87.79
46768;BME280;69007;48.978;18.066;2023-05-29T04:20:51;97573.13;;;17.59;85.99
46768;BME280;69007;48.978;18.066;2023-05-29T04:23:16;97571.09;;;17.88;80.18
46768;BME280;69007;48.978;18.066;2023-05-29T04:25:41;97564.41;;;18.11;79.49
46768;BME280;69007;48.978;18.066;2023-05-29T04:28:09;97579.28;;;18.41;80.93
46768;BME280;69007;48.978;18.066;2023-05-29T04:30:36;97571.28;;;18.71;79.30
46768;BME280;69007;48.978;18.066;2023-05-29T04:33:01;97581.63;;;19.06;75.88
46768;BME280;69007;48.978;18.066;2023-05-29T04:35:26;97582.41;;;19.50;76.62
46768;BME280;69007;48.978;18.066;2023-05-29T04:37:54;97587.94;;;19.67;72.77
46768;BME280;69007;48.978;18.066;2023-05-29T04:40:21;97581.78;;;19.53;74.18
46768;BME280;69007;48.978;18.066;2023-05-29T04:42:46;97581.78;;;19.18;78.07
46768;BME280;69007;48.978;18.066;2023-05-29T04:45:12;97599.44;;;19.17;77.98
46768;BME280;69007;48.978;18.066;2023-05-29T04:47:37;97588.59;;;19.29;78.95
46768;BME280;69007;48.978;18.066;2023-05-29T04:50:12;97593.50;;;19.85;77.76
46768;BME280;69007;48.978;18.066;2023-05-29T04:52:38;97596.13;;;20.29;75.13
46768;BME280;69007;48.978;18.066;2023-05-29T04:55:04;97589.50;;;20.68;71.69
46768;BME280;69007;48.978;18.066;2023-05-29T04:57:30;97601.59;;;21.14;70.43
46768;BME280;69007;48.978;18.066;2023-05-29T04:59:56;97590.94;;;20.74;70.49
46768;BME280;69007;48.978;18.066;2023-05-29T05:02:21;97614.84;;;20.23;73.12
46768;BME280;69007;48.978;18.066;2023-05-29T05:04:46;97612.09;;;20.70;70.79
46768;BME280;69007;48.978;18.066;2023-05-29T05:07:12;97612.09;;;21.72;68.20
46768;BME280;69007;48.978;18.066;2023-05-29T05:09:38;97597.38;;;22.84;62.93
46768;BME280;69007;48.978;18.066;2023-05-29T05:12:03;97599.03;;;23.91;59.04
46768;BME280;69007;48.978;18.066;2023-05-29T05:14:29;97610.94;;;24.52;57.88
46768;BME280;69007;48.978;18.066;2023-05-29T05:16:54;97602.47;;;25.63;54.31
46768;BME280;69007;48.978;18.066;2023-05-29T05:19:19;97603.22;;;25.99;50.84
46768;BME280;69007;48.978;18.066;2023-05-29T05:21:45;97612.06;;;26.67;51.20
46768;BME280;69007;48.978;18.066;2023-05-29T05:24:10;97602.34;;;26.61;47.13
46768;BME280;69007;48.978;18.066;2023-05-29T05:26:36;97625.34;;;27.81;44.93
46768;BME280;69007;48.978;18.066;2023-05-29T05:29:01;97601.78;;;28.98;42.09
46768;BME280;69007;48.978;18.066;2023-05-29T05:31:26;97610.84;;;28.80;41.09
46768;BME280;69007;48.978;18.066;2023-05-29T05:33:52;97607.09;;;28.62;41.31
46768;BME280;69007;48.978;18.066;2023-05-29T05:36:18;97614.09;;;28.07;41.14
46768;BME280;69007;48.978;18.066;2023-05-29T05:38:43;97608.88;;;27.72;42.26
46768;BME280;69007;48.978;18.066;2023-05-29T05:41:09;97617.19;;;28.36;41.57
46768;BME280;69007;48.978;18.066;2023-05-29T05:43:35;97613.00;;;29.53;39.60
46768;BME280;69007;48.978;18.066;2023-05-29T05:46:01;97615.72;;;30.34;38.20
46768;BME280;69007;48.978;18.066;2023-05-29T05:48:26;97619.44;;;30.92;37.03
46768;BME280;69007;48.978;18.066;2023-05-29T05:50:51;97625.41;;;30.65;37.13
46768;BME280;69007;48.978;18.066;2023-05-29T05:53:17;97617.66;;;30.12;38.37
46768;BME280;69007;48.978;18.066;2023-05-29T05:55:43;97625.81;;;30.53;37.40
46768;BME280;69007;48.978;18.066;2023-05-29T05:58:08;97622.19;;;30.38;37.07
46768;BME280;69007;48.978;18.066;2023-05-29T06:00:33;97625.44;;;30.76;36.56
46768;BME280;69007;48.978;18.066;2023-05-29T06:02:59;97633.22;;;32.22;34.56
46768;BME280;69007;48.978;18.066;2023-05-29T06:05:25;97629.84;;;32.52;34.52
46768;BME280;69007;48.978;18.066;2023-05-29T06:07:51;97633.09;;;33.03;33.30
46768;BME280;69007;48.978;18.066;2023-05-29T06:10:16;97623.53;;;33.38;32.86
46768;BME280;69007;48.978;18.066;2023-05-29T06:12:42;97626.13;;;33.98;32.22
46768;BME280;69007;48.978;18.066;2023-05-29T06:15:08;97633.16;;;33.41;33.15
46768;BME280;69007;48.978;18.066;2023-05-29T06:17:33;97620.91;;;31.83;34.53
46768;BME280;69007;48.978;18.066;2023-05-29T06:19:59;97627.03;;;30.66;34.80
46768;BME280;69007;48.978;18.066;2023-05-29T06:22:25;97623.78;;;28.51;39.78
46768;BME280;69007;48.978;18.066;2023-05-29T06:24:51;97620.56;;;28.11;40.11
46768;BME280;69007;48.978;18.066;2023-05-29T06:27:16;97619.56;;;27.66;41.07
46768;BME280;69007;48.978;18.066;2023-05-29T06:29:43;97626.44;;;26.69;43.84
46768;BME280;69007;48.978;18.066;2023-05-29T06:32:08;97632.28;;;26.41;43.92
46768;BME280;69007;48.978;18.066;2023-05-29T06:34:33;97628.78;;;25.85;45.73
46768;BME280;69007;48.978;18.066;2023-05-29T06:36:59;97627.22;;;25.49;45.94
46768;BME280;69007;48.978;18.066;2023-05-29T06:39:24;97636.97;;;25.23;47.50
46768;BME280;69007;48.978;18.066;2023-05-29T06:41:50;97640.44;;;24.69;49.31
46768;BME280;69007;48.978;18.066;2023-05-29T06:44:15;97635.94;;;24.20;50.93
46768;BME280;69007;48.978;18.066;2023-05-29T06:46:40;97634.84;;;23.68;52.00
46768;BME280;69007;48.978;18.066;2023-05-29T06:49:06;97624.16;;;23.29;53.44
46768;BME280;69007;48.978;18.066;2023-05-29T06:51:32;97627.66;;;23.02;55.15
46768;BME280;69007;48.978;18.066;2023-05-29T06:53:58;97635.03;;;22.60;56.79
46768;BME280;69007;48.978;18.066;2023-05-29T06:56:23;97647.53;;;22.79;55.61
46768;BME280;69007;48.978;18.066;2023-05-29T06:58:49;97636.44;;;23.04;54.97
46768;BME280;69007;48.978;18.066;2023-05-29T07:04:23;97640.72;;;23.26;53.47
46768;BME280;69007;48.978;18.066;2023-05-29T07:06:48;97638.16;;;23.45;54.96
46768;BME280;69007;48.978;18.066;2023-05-29T07:09:14;97645.69;;;23.45;53.12
46768;BME280;69007;48.978;18.066;2023-05-29T07:11:39;97646.16;;;23.75;53.55
46768;BME280;69007;48.978;18.066;2023-05-29T07:14:04;97644.75;;;23.94;53.41
46768;BME280;69007;48.978;18.066;2023-05-29T07:16:30;97655.50;;;23.42;53.47
46768;BME280;69007;48.978;18.066;2023-05-29T07:18:55;97653.88;;;23.53;52.99
46768;BME280;69007;48.978;18.066;2023-05-29T07:21:20;97643.34;;;23.47;53.38
46768;BME280;69007;48.978;18.066;2023-05-29T07:23:46;97649.59;;;23.56;52.42
46768;BME280;69007;48.978;18.066;2023-05-29T07:26:11;97651.56;;;23.06;55.00
46768;BME280;69007;48.978;18.066;2023-05-29T07:28:36;97659.09;;;22.81;55.84
46768;BME280;69007;48.978;18.066;2023-05-29T07:31:02;97652.84;;;22.96;54.74
46768;BME280;69007;48.978;18.066;2023-05-29T07:33:27;97658.31;;;23.30;53.71
46768;BME280;69007;48.978;18.066;2023-05-29T07:35:52;97651.19;;;23.57;52.49
46768;BME280;69007;48.978;18.066;2023-05-29T07:38:18;97651.88;;;23.54;52.71
46768;BME280;69007;48.978;18.066;2023-05-29T07:40:43;97662.00;;;23.46;53.67
46768;BME280;69007;48.978;18.066;2023-05-29T07:43:09;97673.91;;;23.47;53.57
46768;BME280;69007;48.978;18.066;2023-05-29T07:45:34;97657.69;;;23.49;54.30
46768;BME280;69007;48.978;18.066;2023-05-29T07:48:00;97671.06;;;23.71;52.80
46768;BME280;69007;48.978;18.066;2023-05-29T07:50:25;97674.59;;;23.44;53.42
46768;BME280;69007;48.978;18.066;2023-05-29T07:52:50;97666.03;;;22.99;55.76
46768;BME280;69007;48.978;18.066;2023-05-29T07:55:16;97670.22;;;23.18;56.69
46768;BME280;69007;48.978;18.066;2023-05-29T07:57:41;97682.69;;;23.49;55.00
46768;BME280;69007;48.978;18.066;2023-05-29T08:00:07;97668.31;;;23.59;53.99
46768;BME280;69007;48.978;18.066;2023-05-29T08:02:33;97674.94;;;23.54;55.57
46768;BME280;69007;48.978;18.066;2023-05-29T08:04:59;97676.81;;;23.38;55.93
46768;BME280;69007;48.978;18.066;2023-05-29T08:07:24;97680.16;;;23.44;54.95
46768;BME280;69007;48.978;18.066;2023-05-29T08:09:52;97671.22;;;23.63;55.07
46768;BME280;69007;48.978;18.066;2023-05-29T08:12:17;97681.13;;;23.76;55.58
46768;BME280;69007;48.978;18.066;2023-05-29T08:14:42;97673.16;;;23.74;55.04
46768;BME280;69007;48.978;18.066;2023-05-29T08:17:07;97679.50;;;23.75;54.31
46768;BME280;69007;48.978;18.066;2023-05-29T08:19:33;97674.75;;;23.76;55.53
46768;BME280;69007;48.978;18.066;2023-05-29T08:21:59;97668.03;;;23.77;54.94
46768;BME280;69007;48.978;18.066;2023-05-29T08:24:24;97660.84;;;23.76;54.14
46768;BME280;69007;48.978;18.066;2023-05-29T08:26:49;97674.50;;;23.81;53.88
46768;BME280;69007;48.978;18.066;2023-05-29T08:29:15;97665.47;;;23.96;55.38
46768;BME280;69007;48.978;18.066;2023-05-29T08:31:40;97673.63;;;24.17;54.25
46768;BME280;69007;48.978;18.066;2023-05-29T08:34:06;97670.97;;;24.08;55.27
46768;BME280;69007;48.978;18.066;2023-05-29T08:36:32;97650.50;;;24.29;54.44
46768;BME280;69007;48.978;18.066;2023-05-29T08:38:57;97650.63;;;24.49;53.92
46768;BME280;69007;48.978;18.066;2023-05-29T08:41:51;97646.97;;;24.16;53.28
46768;BME280;69007;48.978;18.066;2023-05-29T08:44:22;97650.81;;;23.83;55.91
46768;BME280;69007;48.978;18.066;2023-05-29T08:53:37;97651.81;;;23.79;55.13
46768;BME280;69007;48.978;18.066;2023-05-29T08:56:02;97648.81;;;23.84;54.75
46768;BME280;69007;48.978;18.066;2023-05-29T08:58:28;97649.75;;;24.16;54.66
46768;BME280;69007;48.978;18.066;2023-05-29T09:00:54;97636.94;;;24.27;56.23
46768;BME280;69007;48.978;18.066;2023-05-29T09:03:20;97648.16;;;24.31;55.54
46768;BME280;69007;48.978;18.066;2023-05-29T09:05:47;97655.41;;;24.20;56.16
46768;BME280;69007;48.978;18.066;2023-05-29T09:08:14;97658.50;;;24.02;58.02
46768;BME280;69007;48.978;18.066;2023-05-29T09:10:44;97659.81;;;23.92;58.40
46768;BME280;69007;48.978;18.066;2023-05-29T09:13:11;97657.78;;;24.05;56.61
46768;BME280;69007;48.978;18.066;2023-05-29T09:15:37;97631.88;;;24.01;55.98
46768;BME280;69007;48.978;18.066;2023-05-29T09:18:05;97638.31;;;24.05;55.34
46768;BME280;69007;48.978;18.066;2023-05-29T09:20:30;97642.22;;;24.17;56.34
46768;BME280;69007;48.978;18.066;2023-05-29T09:22:58;97640.88;;;24.26;56.61
46768;BME280;69007;48.978;18.066;2023-05-29T09:25:25;97647.91;;;24.36;56.15
46768;BME280;69007;48.978;18.066;2023-05-29T09:28:03;97639.50;;;24.49;55.66
46768;BME280;69007;48.978;18.066;2023-05-29T09:30:43;97636.25;;;24.31;55.44
46768;BME280;69007;48.978;18.066;2023-05-29T09:33:10;97643.78;;;24.46;56.71
46768;BME280;69007;48.978;18.066;2023-05-29T09:35:38;97628.81;;;24.51;55.78
46768;BME280;69007;48.978;18.066;2023-05-29T09:38:05;97627.47;;;24.44;56.01
46768;BME280;69007;48.978;18.066;2023-05-29T09:40:32;97643.63;;;24.39;56.30
46768;BME280;69007;48.978;18.066;2023-05-29T09:43:05;97635.81;;;24.44;55.83
46768;BME280;69007;48.978;18.066;2023-05-29T09:45:32;97622.00;;;24.32;56.82
46768;BME280;69007;48.978;18.066;2023-05-29T09:47:58;97607.47;;;24.39;56.02
46768;BME280;69007;48.978;18.066;2023-05-29T09:50:27;97616.47;;;24.64;56.66
46768;BME280;69007;48.978;18.066;2023-05-29T09:52:55;97632.97;;;24.73;56.58
46768;BME280;69007;48.978;18.066;2023-05-29T09:55:23;97633.06;;;24.76;56.36
46768;BME280;69007;48.978;18.066;2023-05-29T09:57:48;97632.34;;;24.79;55.01
46768;BME280;69007;48.978;18.066;2023-05-29T10:00:15;97636.22;;;24.91;57.56
46768;BME280;69007;48.978;18.066;2023-05-29T10:02:42;97633.41;;;24.91;56.63
46768;BME280;69007;48.978;18.066;2023-05-29T10:05:09;97637.28;;;25.02;55.52
46768;BME280;69007;48.978;18.066;2023-05-29T10:07:37;97615.22;;;24.77;55.78
46768;BME280;69007;48.978;18.066;2023-05-29T10:10:06;97643.75;;;24.74;55.46
46768;BME280;69007;48.978;18.066;2023-05-29T10:12:54;97640.03;;;24.54;55.39
46768;BME280;69007;48.978;18.066;2023-05-29T10:15:23;97626.59;;;24.56;56.70
46768;BME280;69007;48.978;18.066;2023-05-29T10:18:07;97637.00;;;24.59;60.89
46768;BME280;69007;48.978;18.066;2023-05-29T10:20:36;97635.59;;;24.65;56.16
46768;BME280;69007;48.978;18.066;2023-05-29T10:23:03;97628.41;;;24.80;56.46
46768;BME280;69007;48.978;18.066;2023-05-29T10:25:31;97634.84;;;24.84;54.39
46768;BME280;69007;48.978;18.066;2023-05-29T10:27:58;97621.13;;;24.92;54.39
46768;BME280;69007;48.978;18.066;2023-05-29T10:30:38;97627.13;;;24.94;56.27
46768;BME280;69007;48.978;18.066;2023-05-29T10:36:14;97626.06;;;24.98;57.18
46768;BME280;69007;48.978;18.066;2023-05-29T10:38:44;97620.91;;;25.16;56.75
46768;BME280;69007;48.978;18.066;2023-05-29T10:43:54;97614.34;;;25.60;54.44
46768;BME280;69007;48.978;18.066;2023-05-29T10:46:20;97616.41;;;25.63;51.88
46768;BME280;69007;48.978;18.066;2023-05-29T10:48:49;97612.94;;;25.15;52.83
46768;BME280;69007;48.978;18.066;2023-05-29T10:51:25;97606.94;;;24.97;55.99
46768;BME280;69007;48.978;18.066;2023-05-29T10:53:52;97608.38;;;25.07;54.89
46768;BME280;69007;48.978;18.066;2023-05-29T10:56:23;97618.72;;;25.26;55.50
46768;BME280;69007;48.978;18.066;2023-05-29T10:58:54;97626.22;;;25.22;53.86
46768;BME280;69007;48.978;18.066;2023-05-29T11:01:22;97614.81;;;25.11;56.00
46768;BME280;69007;48.978;18.066;2023-05-29T11:03:48;97612.22;;;25.18;55.07
46768;BME280;69007;48.978;18.066;2023-05-29T11:06:21;97607.00;;;25.16;54.12
46768;BME280;69007;48.978;18.066;2023-05-29T11:08:56;97619.22;;;25.28;56.86
46768;BME280;69007;48.978;18.066;2023-05-29T11:13:54;97613.66;;;25.28;60.11
46768;BME280;69007;48.978;18.066;2023-05-29T11:18:56;97612.47;;;25.29;55.12
46768;BME280;69007;48.978;18.066;2023-05-29T11:24:16;97607.59;;;25.26;50.59
46768;BME280;69007;48.978;18.066;2023-05-29T11:26:46;97612.09;;;25.14;52.41
46768;BME280;69007;48.978;18.066;2023-05-29T11:29:12;97613.81;;;25.19;54.21
46768;BME280;69007;48.978;18.066;2023-05-29T11:31:39;97602.66;;;25.19;56.79
46768;BME280;69007;48.978;18.066;2023-05-29T11:34:09;97615.06;;;25.22;56.10
46768;BME280;69007;48.978;18.066;2023-05-29T11:36:36;97620.53;;;25.34;58.97
46768;BME280;69007;48.978;18.066;2023-05-29T11:39:02;97616.09;;;25.49;55.51
46768;BME280;69007;48.978;18.066;2023-05-29T11:41:29;97614.41;;;25.64;54.04
46768;BME280;69007;48.978;18.066;2023-05-29T11:44:02;97610.59;;;25.72;54.80
46768;BME280;69007;48.978;18.066;2023-05-29T11:46:28;97599.16;;;25.77;54.04
46768;BME280;69007;48.978;18.066;2023-05-29T11:49:00;97605.25;;;25.83;56.15
46768;BME280;69007;48.978;18.066;2023-05-29T11:51:26;97597.78;;;25.87;52.69
46768;BME280;69007;48.978;18.066;2023-05-29T11:53:52;97609.09;;;25.94;50.13
46768;BME280;69007;48.978;18.066;2023-05-29T11:56:23;97604.41;;;25.98;51.08
46768;BME280;69007;48.978;18.066;2023-05-29T11:58:49;97603.59;;;25.98;51.02
46768;BME280;69007;48.978;18.066;2023-05-29T12:01:16;97596.59;;;25.88;51.33
46768;BME280;69007;48.978;18.066;2023-05-29T12:03:44;97584.28;;;25.89;52.11
46768;BME280;69007;48.978;18.066;2023-05-29T12:06:10;97594.06;;;25.99;51.47
46768;BME280;69007;48.978;18.066;2023-05-29T12:08:36;97582.91;;;25.99;51.74
46768;BME280;69007;48.978;18.066;2023-05-29T12:11:02;97576.59;;;26.02;48.91
46768;BME280;69007;48.978;18.066;2023-05-29T12:13:27;97575.41;;;26.03;47.72
46768;BME280;69007;48.978;18.066;2023-05-29T12:15:57;97583.03;;;26.06;49.69
46768;BME280;69007;48.978;18.066;2023-05-29T12:18:24;97577.22;;;26.15;51.31
46768;BME280;69007;48.978;18.066;2023-05-29T12:20:50;97573.56;;;26.10;50.30
46768;BME280;69007;48.978;18.066;2023-05-29T12:23:17;97578.06;;;26.15;49.76
46768;BME280;69007;48.978;18.066;2023-05-29T12:25:46;97563.53;;;26.06;51.50
46768;BME280;69007;48.978;18.066;2023-05-29T12:28:15;97574.63;;;26.02;49.27
46768;BME280;69007;48.978;18.066;2023-05-29T12:30:41;97564.69;;;26.05;48.98
46768;BME280;69007;48.978;18.066;2023-05-29T12:33:09;97548.78;;;26.05;51.99
46768;BME280;69007;48.978;18.066;2023-05-29T12:35:34;97571.13;;;26.28;52.20
46768;BME280;69007;48.978;18.066;2023-05-29T12:38:05;97566.72;;;26.27;47.91
46768;BME280;69007;48.978;18.066;2023-05-29T12:40:31;97552.19;;;26.18;48.28
46768;BME280;69007;48.978;18.066;2023-05-29T12:43:06;97560.75;;;26.06;48.09
46768;BME280;69007;48.978;18.066;2023-05-29T12:45:32;97575.09;;;26.08;48.79
46768;BME280;69007;48.978;18.066;2023-05-29T12:47:59;97569.78;;;25.99;47.56
46768;BME280;69007;48.978;18.066;2023-05-29T12:50:30;97558.56;;;25.76;50.10
46768;BME280;69007;48.978;18.066;2023-05-29T12:53:02;97555.91;;;25.64;49.62
46768;BME280;69007;48.978;18.066;2023-05-29T12:55:31;97571.47;;;25.65;51.60
46768;BME280;69007;48.978;18.066;2023-05-29T12:58:04;97567.81;;;25.61;50.65
46768;BME280;69007;48.978;18.066;2023-05-29T13:00:30;97553.47;;;25.62;50.90
46768;BME280;69007;48.978;18.066;2023-05-29T13:02:56;97555.59;;;25.69;50.50
46768;BME280;69007;48.978;18.066;2023-05-29T13:05:22;97561.03;;;25.81;48.84
46768;BME280;69007;48.978;18.066;2023-05-29T13:07:49;97557.09;;;25.82;51.17
46768;BME280;69007;48.978;18.066;2023-05-29T13:10:15;97549.16;;;25.84;49.89
46768;BME280;69007;48.978;18.066;2023-05-29T13:12:41;97565.56;;;25.89;49.46
46768;BME280;69007;48.978;18.066;2023-05-29T13:15:07;97556.31;;;25.85;48.25
46768;BME280;69007;48.978;18.066;2023-05-29T13:17:33;97581.28;;;25.98;48.63